Time;durP1;ratioP1;P1;durP2;ratioP2;P2;SDS_P1;SDS_P2;PMS_P1;PMS_P2;Temp;Humidity;BMP_temperature;BMP_pressure;BME280_temperature;BME280_humidity;BME280_pressure;Samples;Min_cycle;Max_cycle;Signal;HPM_P1;HPM_P2
2021/05/10 00:01:07;;;;;;;3.83;2.13;;;22.50;91.20;;;;;;5086205;28;20219;-76
2021/05/10 00:03:34;;;;;;;5.20;1.55;;;22.50;91.40;;;;;;5086427;28;20233;-76
2021/05/10 00:06:00;;;;;;;3.40;1.38;;;22.50;91.50;;;;;;5085498;28;20679;-76
2021/05/10 00:08:28;;;;;;;3.22;1.42;;;22.50;91.50;;;;;;5082126;28;20210;-76
2021/05/10 00:10:55;;;;;;;2.45;1.35;;;22.50;91.80;;;;;;5068883;28;20213;-76
2021/05/10 00:13:22;;;;;;;8.90;1.63;;;22.50;91.50;;;;;;5072384;28;20200;-76
2021/05/10 00:15:49;;;;;;;2.58;1.45;;;22.60;91.70;;;;;;5082484;28;20197;-76
2021/05/10 00:18:17;;;;;;;3.00;1.88;;;22.60;92.10;;;;;;5075709;28;20208;-76
2021/05/10 00:20:45;;;;;;;3.60;1.52;;;22.50;91.90;;;;;;5071422;28;20209;-77
2021/05/10 00:23:12;;;;;;;7.60;1.40;;;22.50;91.90;;;;;;5079512;28;20208;-77
2021/05/10 00:25:40;;;;;;;1.50;1.25;;;22.50;91.80;;;;;;5076840;28;20238;-81
2021/05/10 00:30:48;;;;;;;4.45;2.03;;;22.50;92.20;;;;;;5081526;28;20200;-79
2021/05/10 00:33:14;;;;;;;5.18;1.50;;;22.50;93.20;;;;;;5083341;28;20205;-79
2021/05/10 00:35:41;;;;;;;2.10;1.88;;;22.50;93.80;;;;;;5084503;28;20660;-80
2021/05/10 00:38:08;;;;;;;4.00;1.80;;;22.50;94.60;;;;;;5082726;28;20196;-80
2021/05/10 00:40:34;;;;;;;3.88;2.30;;;22.40;94.90;;;;;;5086871;28;20324;-80
2021/05/10 00:43:02;;;;;;;3.67;1.63;;;22.30;94.50;;;;;;5083603;28;20201;-79
2021/05/10 00:45:29;;;;;;;2.92;1.70;;;22.20;95.20;;;;;;5081029;28;20224;-79
2021/05/10 00:47:56;;;;;;;1.90;1.80;;;22.30;96.40;;;;;;5090668;28;20212;-80
2021/05/10 00:50:23;;;;;;;2.60;1.85;;;22.20;96.50;;;;;;5085612;28;20197;-79
2021/05/10 00:52:50;;;;;;;5.43;1.73;;;22.10;96.10;;;;;;5081185;28;20627;-80
2021/05/10 00:55:17;;;;;;;3.47;1.90;;;22.10;96.60;;;;;;5087966;28;20204;-80
2021/05/10 00:57:49;;;;;;;5.28;1.58;;;22.10;95.60;;;;;;5075279;28;20206;-81
2021/05/10 01:00:17;;;;;;;4.88;1.55;;;22.00;95.90;;;;;;5070863;28;20212;-80
2021/05/10 01:02:44;;;;;;;6.07;1.60;;;21.90;95.20;;;;;;5089260;28;20233;-80
2021/05/10 01:05:12;;;;;;;4.72;1.80;;;21.90;94.70;;;;;;5080287;28;20229;-80
2021/05/10 01:07:38;;;;;;;3.33;1.65;;;21.80;95.90;;;;;;5077681;28;20196;-81
2021/05/10 01:10:09;;;;;;;3.65;1.60;;;21.80;95.80;;;;;;5077205;28;20679;-79
2021/05/10 01:12:36;;;;;;;3.55;1.80;;;21.70;95.10;;;;;;5085828;28;20239;-80
2021/05/10 01:15:05;;;;;;;6.15;1.63;;;21.70;95.50;;;;;;5086297;28;20201;-80
2021/05/10 01:17:34;;;;;;;3.85;1.67;;;21.60;96.10;;;;;;5086716;28;20209;-79
2021/05/10 01:20:01;;;;;;;2.13;2.03;;;21.60;95.30;;;;;;5076153;28;20213;-80
2021/05/10 01:22:40;;;;;;;4.47;1.98;;;21.60;95.10;;;;;;5080653;28;20288;-79
2021/05/10 01:25:08;;;;;;;2.03;1.45;;;21.70;94.80;;;;;;5078569;28;20209;-80
2021/05/10 01:27:35;;;;;;;2.63;1.60;;;21.70;95.40;;;;;;5077217;28;20205;-80
2021/05/10 01:30:03;;;;;;;3.25;2.30;;;21.70;94.90;;;;;;5086398;28;20202;-79
2021/05/10 01:32:30;;;;;;;3.17;1.70;;;21.70;94.30;;;;;;5082620;28;20227;-80
2021/05/10 01:34:56;;;;;;;6.47;2.08;;;21.70;93.90;;;;;;5074677;28;20232;-79
2021/05/10 01:37:22;;;;;;;5.22;1.27;;;21.70;94.10;;;;;;5078509;28;20212;-80
2021/05/10 01:39:50;;;;;;;3.92;1.40;;;21.70;93.50;;;;;;5069904;28;20209;-80
2021/05/10 01:42:16;;;;;;;7.88;1.85;;;21.80;93.20;;;;;;5076073;28;20201;-80
2021/05/10 01:44:43;;;;;;;3.30;1.45;;;21.80;93.60;;;;;;5080356;28;20228;-80
2021/05/10 01:47:09;;;;;;;4.75;1.73;;;21.80;93.30;;;;;;5083229;28;20209;-80
2021/05/10 01:49:36;;;;;;;1.60;1.50;;;21.80;93.40;;;;;;5074813;28;20568;-79
2021/05/10 01:52:02;;;;;;;4.88;1.83;;;21.90;93.10;;;;;;5085883;28;20208;-80
2021/05/10 01:54:29;;;;;;;6.05;1.80;;;21.80;93.40;;;;;;5075639;28;20209;-81
2021/05/10 01:56:56;;;;;;;5.93;1.75;;;21.80;93.20;;;;;;5078060;28;20197;-81
2021/05/10 01:59:22;;;;;;;3.00;1.77;;;21.90;93.00;;;;;;5073097;28;20198;-81
2021/05/10 02:01:49;;;;;;;2.42;1.60;;;21.80;92.90;;;;;;5079620;28;20205;-79
2021/05/10 02:04:15;;;;;;;2.85;1.63;;;21.90;93.00;;;;;;5074625;28;20232;-81
2021/05/10 02:06:41;;;;;;;2.92;1.90;;;21.90;92.90;;;;;;5081363;28;20208;-80
2021/05/10 02:09:08;;;;;;;3.67;1.42;;;21.90;93.00;;;;;;5086345;28;20201;-80
2021/05/10 02:11:34;;;;;;;2.65;1.60;;;21.90;92.70;;;;;;5086184;28;20232;-80
2021/05/10 02:14:01;;;;;;;2.45;1.58;;;21.90;92.70;;;;;;5072262;28;20198;-75
2021/05/10 02:16:28;;;;;;;3.13;1.55;;;22.00;92.30;;;;;;5078406;28;20233;-80
2021/05/10 02:18:56;;;;;;;7.68;1.58;;;22.00;92.30;;;;;;5084301;28;20204;-81
2021/05/10 02:21:29;;;;;;;7.57;1.60;;;22.00;92.00;;;;;;5086993;28;20217;-81
2021/05/10 02:23:56;;;;;;;1.80;1.30;;;22.00;91.90;;;;;;5075621;28;20202;-80
2021/05/10 02:26:23;;;;;;;3.20;1.42;;;22.10;91.80;;;;;;5074673;28;20548;-80
2021/05/10 02:28:49;;;;;;;2.67;1.52;;;22.00;91.90;;;;;;5079292;28;20197;-81
2021/05/10 02:31:16;;;;;;;3.88;1.65;;;22.00;92.20;;;;;;5071668;28;20198;-81
2021/05/10 02:33:43;;;;;;;1.30;1.20;;;22.00;92.00;;;;;;5081114;28;20208;-80
2021/05/10 02:36:09;;;;;;;3.08;1.50;;;22.00;92.10;;;;;;5083121;28;20213;-81
2021/05/10 02:38:36;;;;;;;6.22;1.23;;;22.10;92.40;;;;;;5071370;28;20212;-80
2021/05/10 02:41:02;;;;;;;3.38;1.40;;;22.00;92.20;;;;;;5070854;28;20202;-80
2021/05/10 02:43:29;;;;;;;2.65;1.35;;;22.00;92.10;;;;;;5074947;28;20213;-80
2021/05/10 02:45:55;;;;;;;3.33;1.55;;;21.90;92.20;;;;;;5071634;28;20229;-80
2021/05/10 02:48:23;;;;;;;3.15;1.45;;;21.90;92.20;;;;;;5085408;28;20201;-79
2021/05/10 02:50:50;;;;;;;3.40;1.35;;;21.90;92.60;;;;;;5092341;28;20207;-80
2021/05/10 02:53:17;;;;;;;3.70;1.88;;;21.90;92.40;;;;;;5075773;28;20198;-79
2021/05/10 02:55:43;;;;;;;3.85;1.70;;;21.80;92.20;;;;;;5084854;28;20208;-80
2021/05/10 02:58:10;;;;;;;2.25;1.73;;;21.90;92.30;;;;;;5074053;28;20202;-81
2021/05/10 03:00:36;;;;;;;4.18;1.83;;;21.90;92.30;;;;;;5080232;28;20216;-80
2021/05/10 03:03:03;;;;;;;3.05;1.67;;;21.90;92.30;;;;;;5077784;28;20243;-80
2021/05/10 03:05:30;;;;;;;1.58;1.48;;;21.90;92.60;;;;;;5085792;28;20220;-80
2021/05/10 03:07:58;;;;;;;2.20;2.00;;;21.90;92.40;;;;;;5080031;28;20209;-81
2021/05/10 03:10:25;;;;;;;1.60;1.50;;;21.90;92.50;;;;;;5081348;28;20202;-80
2021/05/10 03:12:53;;;;;;;6.05;1.60;;;21.90;92.40;;;;;;5080412;28;20206;-80
2021/05/10 03:15:21;;;;;;;2.72;1.85;;;21.90;92.40;;;;;;5083079;28;20197;-80
2021/05/10 03:17:49;;;;;;;2.45;1.70;;;21.90;92.40;;;;;;5085342;28;20208;-80
2021/05/10 03:20:18;;;;;;;1.60;1.50;;;21.90;92.40;;;;;;5084148;28;20233;-80
2021/05/10 03:22:46;;;;;;;4.85;1.48;;;21.90;92.60;;;;;;5085590;28;20205;-80
2021/05/10 03:25:20;;;;;;;2.50;1.60;;;21.80;92.50;;;;;;5093607;28;20311;-80
2021/05/10 03:35:50;;;;;;;1.95;1.50;;;21.70;92.70;;;;;;5087123;28;20220;-80
2021/05/10 03:38:17;;;;;;;2.78;1.90;;;21.60;92.80;;;;;;5083982;28;20201;-80
2021/05/10 03:40:44;;;;;;;2.15;1.33;;;21.60;92.70;;;;;;5082287;28;20201;-79
2021/05/10 03:43:10;;;;;;;1.80;1.67;;;21.60;92.80;;;;;;5087021;28;20212;-79
2021/05/10 03:45:37;;;;;;;5.00;1.40;;;21.60;92.90;;;;;;5086425;28;20232;-79
2021/05/10 03:53:42;;;;;;;2.33;1.70;;;21.60;93.40;;;;;;5088991;28;20459;-80
2021/05/10 03:56:14;;;;;;;4.40;1.63;;;21.50;93.40;;;;;;5072948;28;20209;-81
2021/05/10 04:09:53;;;;;;;1.65;1.55;;;21.40;93.60;;;;;;5071754;28;20206;-82
2021/05/10 04:17:54;;;;;;;4.82;1.60;;;21.40;93.40;;;;;;5091000;28;20208;-81
2021/05/10 04:25:58;;;;;;;5.10;2.10;;;21.40;94.90;;;;;;5077352;28;20221;-80
2021/05/10 04:28:29;;;;;;;3.33;2.17;;;21.40;94.90;;;;;;5073259;28;20204;-80
2021/05/10 04:39:03;;;;;;;2.13;1.90;;;21.50;94.60;;;;;;5071829;28;20736;-80
2021/05/10 04:41:30;;;;;;;4.60;2.28;;;21.50;94.90;;;;;;5079137;28;20201;-81
2021/05/10 04:43:56;;;;;;;3.80;1.50;;;21.50;94.60;;;;;;5074299;28;20241;-81
2021/05/10 04:57:15;;;;;;;3.47;1.67;;;21.40;95.40;;;;;;5084748;28;20671;-79
2021/05/10 05:16:07;;;;;;;1.67;1.58;;;21.20;95.70;;;;;;5083847;28;20279;-75
2021/05/10 05:18:34;;;;;;;3.83;2.08;;;21.20;95.60;;;;;;5079351;28;20231;-75
2021/05/10 05:21:00;;;;;;;4.50;1.90;;;21.20;95.70;;;;;;5075559;28;20208;-75
2021/05/10 05:23:28;;;;;;;2.88;1.85;;;21.20;95.70;;;;;;5080979;28;20212;-75
2021/05/10 05:25:56;;;;;;;2.53;2.03;;;21.20;95.80;;;;;;5078472;28;20239;-75
2021/05/10 05:28:22;;;;;;;1.45;1.35;;;21.20;96.00;;;;;;5071277;28;20198;-75
2021/05/10 05:30:50;;;;;;;6.43;1.70;;;21.20;96.10;;;;;;5067724;28;20205;-75
2021/05/10 05:33:16;;;;;;;2.95;1.55;;;21.20;95.90;;;;;;5066785;28;20198;-75
2021/05/10 05:35:43;;;;;;;5.40;2.13;;;21.30;96.30;;;;;;5067288;28;20212;-75
2021/05/10 05:38:10;;;;;;;3.17;2.08;;;21.30;96.10;;;;;;5067165;28;21349;-76
2021/05/10 05:40:36;;;;;;;1.77;1.67;;;21.30;95.90;;;;;;5071938;28;20214;-75
2021/05/10 05:43:03;;;;;;;4.03;1.60;;;21.30;95.90;;;;;;5077459;28;20204;-75
2021/05/10 05:45:29;;;;;;;3.20;1.75;;;21.20;96.20;;;;;;5078995;28;20225;-76
2021/05/10 05:47:57;;;;;;;2.13;1.20;;;21.20;95.90;;;;;;5072244;28;20208;-75
2021/05/10 05:50:23;;;;;;;2.97;1.85;;;21.20;96.20;;;;;;5075174;28;20204;-76
2021/05/10 05:52:50;;;;;;;2.88;1.88;;;21.10;96.40;;;;;;5076881;28;20197;-76
2021/05/10 05:55:16;;;;;;;2.33;1.40;;;21.10;97.00;;;;;;5080546;28;20207;-76
2021/05/10 05:57:44;;;;;;;1.30;1.20;;;21.20;97.00;;;;;;5076563;28;20213;-77
2021/05/10 06:00:12;;;;;;;3.20;1.42;;;21.20;96.70;;;;;;5074115;28;20202;-77
2021/05/10 06:02:40;;;;;;;7.03;1.75;;;21.10;96.80;;;;;;5074162;28;20706;-77
2021/05/10 06:05:09;;;;;;;3.72;1.58;;;21.00;96.80;;;;;;5084432;28;20224;-76
2021/05/10 06:07:40;;;;;;;3.95;2.10;;;21.00;97.00;;;;;;5083259;28;20197;-76
2021/05/10 06:10:08;;;;;;;3.78;1.90;;;21.00;97.30;;;;;;5078908;28;20201;-76
2021/05/10 06:12:35;;;;;;;3.10;1.63;;;20.90;97.20;;;;;;5084657;28;20253;-76
2021/05/10 06:15:01;;;;;;;2.75;1.98;;;21.00;97.70;;;;;;5084825;28;20201;-76
2021/05/10 06:17:28;;;;;;;2.92;1.40;;;21.00;97.40;;;;;;5084414;28;20201;-76
2021/05/10 06:19:55;;;;;;;1.80;1.70;;;21.00;97.80;;;;;;5085728;28;20200;-76
2021/05/10 06:22:22;;;;;;;2.30;1.63;;;20.90;97.70;;;;;;5088522;28;20514;-76
2021/05/10 06:24:49;;;;;;;1.27;1.17;;;20.90;98.00;;;;;;5084013;28;20607;-75
2021/05/10 06:27:15;;;;;;;3.28;2.03;;;21.00;97.80;;;;;;5087882;28;20208;-76
2021/05/10 06:29:42;;;;;;;2.72;1.70;;;21.10;98.30;;;;;;5088638;28;20208;-77
2021/05/10 06:32:08;;;;;;;7.00;1.92;;;21.10;97.90;;;;;;5088180;28;20204;-76
2021/05/10 06:34:34;;;;;;;5.95;1.98;;;21.10;98.10;;;;;;5087726;28;20212;-76
2021/05/10 06:37:01;;;;;;;3.60;1.77;;;21.10;97.70;;;;;;5087170;28;20205;-76
2021/05/10 06:39:28;;;;;;;2.63;1.27;;;21.20;98.30;;;;;;5087640;28;20208;-77
2021/05/10 06:41:54;;;;;;;5.28;1.98;;;21.30;98.40;;;;;;5088152;28;20205;-76
2021/05/10 06:44:21;;;;;;;5.38;2.03;;;21.30;98.20;;;;;;5087307;28;20208;-75
2021/05/10 06:46:47;;;;;;;2.90;1.55;;;21.50;99.10;;;;;;5087082;28;20454;-76
2021/05/10 06:49:14;;;;;;;3.63;2.95;;;21.80;98.60;;;;;;5087275;28;20201;-76
2021/05/10 06:51:40;;;;;;;3.65;1.50;;;22.20;98.30;;;;;;5087657;28;20201;-76
2021/05/10 06:54:07;;;;;;;1.73;1.58;;;22.40;98.40;;;;;;5088015;28;20231;-76
2021/05/10 06:56:34;;;;;;;6.63;1.10;;;22.60;97.50;;;;;;5088127;28;20201;-78
2021/05/10 06:59:00;;;;;;;11.35;2.25;;;22.60;98.00;;;;;;5088002;28;20201;-76
2021/05/10 07:01:27;;;;;;;4.65;1.92;;;22.60;97.60;;;;;;5086342;28;20204;-76
2021/05/10 07:03:54;;;;;;;2.75;1.60;;;22.60;98.20;;;;;;5087548;28;20786;-76
2021/05/10 07:06:21;;;;;;;1.48;1.20;;;22.90;97.50;;;;;;5087398;28;20228;-76
2021/05/10 07:08:47;;;;;;;1.10;1.10;;;23.20;97.40;;;;;;5087652;28;20629;-76
2021/05/10 07:11:14;;;;;;;5.55;1.52;;;23.50;97.40;;;;;;5087792;28;20193;-76
2021/05/10 07:13:41;;;;;;;2.10;1.30;;;23.80;97.30;;;;;;5087410;28;20207;-76
2021/05/10 07:16:08;;;;;;;3.88;1.65;;;24.00;98.20;;;;;;5087307;28;20205;-76
2021/05/10 07:18:34;;;;;;;4.93;1.60;;;24.30;97.80;;;;;;5087596;28;20634;-76
2021/05/10 07:21:01;;;;;;;8.10;1.40;;;24.60;96.20;;;;;;5087136;28;20641;-76
2021/05/10 07:23:28;;;;;;;2.45;1.20;;;24.80;95.20;;;;;;5087357;28;20200;-76
2021/05/10 07:25:54;;;;;;;2.33;1.48;;;24.90;96.20;;;;;;5087400;28;20225;-75
2021/05/10 07:28:21;;;;;;;1.23;1.13;;;25.00;95.00;;;;;;5087188;28;20209;-74
2021/05/10 07:30:49;;;;;;;3.50;1.43;;;25.20;94.90;;;;;;5080412;28;20457;-74
2021/05/10 07:33:16;;;;;;;4.85;1.20;;;25.10;94.70;;;;;;5086585;28;20470;-74
2021/05/10 07:35:43;;;;;;;2.42;0.90;;;24.90;94.50;;;;;;5088465;28;20216;-74
2021/05/10 07:38:09;;;;;;;3.10;1.33;;;24.60;94.10;;;;;;5085230;28;20231;-74
2021/05/10 07:40:37;;;;;;;5.47;1.42;;;24.30;94.50;;;;;;5089060;28;20574;-74
2021/05/10 07:43:03;;;;;;;2.13;1.13;;;24.00;94.90;;;;;;5088428;28;20197;-74
2021/05/10 07:45:30;;;;;;;6.32;0.90;;;23.70;94.50;;;;;;5090983;28;21745;-73
2021/05/10 07:47:57;;;;;;;3.38;0.98;;;23.40;95.30;;;;;;5087576;28;20200;-76
2021/05/10 07:50:26;;;;;;;3.78;1.15;;;23.30;95.50;;;;;;5085804;28;20223;-75
2021/05/10 07:52:54;;;;;;;5.07;1.10;;;23.10;95.10;;;;;;5086429;28;20229;-75
2021/05/10 07:55:21;;;;;;;1.77;1.00;;;22.80;95.10;;;;;;5086808;28;20205;-76
2021/05/10 07:57:47;;;;;;;1.05;0.90;;;22.60;95.90;;;;;;5086183;28;20204;-75
2021/05/10 08:00:21;;;;;;;2.35;0.90;;;22.30;96.30;;;;;;5085657;28;20208;-75
2021/05/10 08:02:51;;;;;;;2.78;1.00;;;22.10;96.30;;;;;;5084954;28;20212;-76
2021/05/10 08:05:19;;;;;;;4.63;0.88;;;22.00;96.90;;;;;;5081852;28;20239;-76
2021/05/10 08:07:46;;;;;;;0.63;0.63;;;22.00;97.30;;;;;;5086459;28;20209;-76
2021/05/10 08:10:13;;;;;;;1.95;1.27;;;22.00;97.30;;;;;;5086598;28;20205;-76
2021/05/10 08:12:39;;;;;;;0.90;0.65;;;22.20;97.30;;;;;;5085474;28;20209;-76
2021/05/10 08:15:07;;;;;;;2.28;0.70;;;22.30;96.60;;;;;;5086541;28;20200;-76
2021/05/10 08:17:35;;;;;;;2.70;0.98;;;22.30;97.10;;;;;;5086414;28;20205;-76
2021/05/10 08:20:02;;;;;;;3.90;0.60;;;22.40;97.30;;;;;;5086036;28;20201;-75
2021/05/10 08:22:29;;;;;;;0.90;0.63;;;22.50;97.40;;;;;;5085359;28;20212;-75
2021/05/10 08:24:56;;;;;;;0.98;0.60;;;22.60;97.20;;;;;;5082321;28;20229;-76
2021/05/10 08:27:22;;;;;;;3.30;0.98;;;22.70;96.90;;;;;;5084792;28;20197;-76
2021/05/10 08:29:49;;;;;;;0.70;0.70;;;22.80;97.10;;;;;;5085061;28;20241;-76
2021/05/10 08:32:15;;;;;;;1.83;0.70;;;22.70;96.90;;;;;;5084134;28;20192;-76
2021/05/10 08:34:42;;;;;;;0.88;0.65;;;22.50;96.50;;;;;;5080079;28;20223;-76
2021/05/10 08:37:08;;;;;;;1.98;0.90;;;22.30;96.90;;;;;;5085117;28;20197;-75
2021/05/10 08:39:36;;;;;;;1.88;0.80;;;22.10;97.40;;;;;;5084878;28;20212;-75
2021/05/10 08:42:03;;;;;;;2.35;1.23;;;21.90;97.70;;;;;;5085209;28;20205;-75
2021/05/10 08:44:29;;;;;;;1.88;0.90;;;21.70;98.20;;;;;;5084035;28;20586;-76
2021/05/10 08:46:55;;;;;;;1.60;0.70;;;21.50;98.20;;;;;;5085003;28;20208;-75
2021/05/10 08:49:22;;;;;;;0.93;0.80;;;21.30;98.70;;;;;;5085073;28;20205;-75
2021/05/10 08:51:49;;;;;;;3.90;1.05;;;21.30;99.10;;;;;;5080299;28;20215;-75
2021/05/10 08:54:21;;;;;;;1.30;0.95;;;21.20;99.20;;;;;;5084512;28;20197;-76
2021/05/10 08:56:48;;;;;;;0.95;0.70;;;21.20;99.10;;;;;;5084688;28;20229;-75
2021/05/10 08:59:15;;;;;;;2.35;0.73;;;21.20;99.50;;;;;;5084811;28;20205;-75
2021/05/10 09:01:49;;;;;;;0.80;0.75;;;21.30;99.70;;;;;;5084948;28;20205;-75
2021/05/10 09:04:16;;;;;;;2.78;1.52;;;21.30;99.90;;;;;;5084804;28;20228;-75
2021/05/10 09:06:43;;;;;;;3.08;1.00;;;21.20;99.90;;;;;;5084122;28;20703;-75
2021/05/10 09:09:10;;;;;;;1.63;0.57;;;21.20;99.70;;;;;;5082728;28;20227;-75
2021/05/10 09:11:53;;;;;;;1.40;0.70;;;21.30;99.90;;;;;;5081346;28;20204;-75
2021/05/10 09:14:34;;;;;;;1.83;0.70;;;21.50;99.90;;;;;;5085895;28;20223;-75
2021/05/10 09:17:00;;;;;;;3.65;0.73;;;21.70;99.50;;;;;;5080959;28;20204;-76
2021/05/10 09:19:44;;;;;;;2.70;0.85;;;21.70;99.30;;;;;;5081596;28;20209;-76
2021/05/10 09:22:11;;;;;;;1.13;0.63;;;21.60;99.30;;;;;;5082425;28;20221;-76
2021/05/10 09:24:51;;;;;;;2.45;0.60;;;21.60;99.10;;;;;;5083799;28;20212;-76
2021/05/10 09:27:30;;;;;;;1.50;0.82;;;21.60;99.40;;;;;;5083490;28;20664;-76
2021/05/10 09:30:22;;;;;;;3.28;0.80;;;21.60;99.40;;;;;;5084201;28;20626;-76
2021/05/10 09:32:50;;;;;;;1.83;1.20;;;21.70;99.60;;;;;;5084214;28;20235;-76
2021/05/10 09:35:25;;;;;;;1.25;0.80;;;21.60;99.40;;;;;;5083910;28;20208;-76
2021/05/10 09:37:57;;;;;;;3.35;1.00;;;21.60;99.90;;;;;;5085203;28;20226;-76
2021/05/10 09:40:24;;;;;;;1.90;0.90;;;21.70;99.90;;;;;;5084049;28;20301;-75
2021/05/10 09:42:56;;;;;;;1.45;0.70;;;21.60;99.40;;;;;;5084457;28;20201;-76
2021/05/10 09:45:34;;;;;;;1.42;0.75;;;21.60;99.40;;;;;;5084533;28;20229;-76
2021/05/10 09:48:06;;;;;;;0.57;0.50;;;21.70;99.60;;;;;;5083445;28;20904;-76
2021/05/10 09:50:33;;;;;;;2.75;0.95;;;21.70;98.70;;;;;;5084121;28;20250;-76
2021/05/10 09:53:01;;;;;;;0.82;0.73;;;21.70;99.10;;;;;;5084243;28;20224;-75
2021/05/10 09:55:39;;;;;;;0.68;0.50;;;21.70;99.00;;;;;;5083384;28;20208;-74
2021/05/10 09:58:06;;;;;;;0.70;0.60;;;21.60;98.60;;;;;;5078443;28;20292;-75
2021/05/10 10:00:33;;;;;;;0.88;0.60;;;21.50;99.20;;;;;;5083666;28;20284;-74
2021/05/10 10:08:16;;;;;;;7.15;1.02;;;21.30;98.80;;;;;;5110065;28;20204;-75
2021/05/10 10:10:43;;;;;;;1.35;0.70;;;21.30;99.90;;;;;;5114849;28;20203;-75
2021/05/10 10:13:09;;;;;;;1.60;1.20;;;21.30;99.50;;;;;;5103668;28;20211;-75
2021/05/10 10:15:35;;;;;;;2.25;0.90;;;21.40;99.90;;;;;;5108130;28;20602;-77
2021/05/10 10:18:04;;;;;;;2.42;1.08;;;21.40;99.90;;;;;;5103018;28;20207;-76
2021/05/10 10:20:32;;;;;;;1.17;0.85;;;21.50;99.90;;;;;;5105245;28;20693;-76
2021/05/10 10:22:59;;;;;;;4.68;1.40;;;21.50;99.80;;;;;;5111210;28;20227;-76
2021/05/10 10:25:27;;;;;;;2.38;1.10;;;21.50;99.10;;;;;;5107974;28;20200;-76
2021/05/10 10:27:56;;;;;;;1.35;1.23;;;21.40;99.30;;;;;;5102486;28;20215;-76
2021/05/10 10:30:25;;;;;;;2.10;1.17;;;21.30;99.00;;;;;;5106941;28;20203;-76
2021/05/10 10:32:51;;;;;;;2.60;1.00;;;21.20;99.30;;;;;;5103672;28;20201;-76
2021/05/10 10:35:20;;;;;;;2.05;0.88;;;21.10;99.10;;;;;;5112894;28;20200;-76
2021/05/10 10:37:47;;;;;;;0.90;0.90;;;20.90;99.10;;;;;;5113672;28;20196;-76
2021/05/10 10:40:20;;;;;;;3.95;1.00;;;20.80;99.10;;;;;;5106194;28;20196;-76
2021/05/10 10:42:48;;;;;;;1.27;1.00;;;20.60;99.70;;;;;;5107774;28;20224;-77
2021/05/10 10:45:22;;;;;;;1.00;0.80;;;20.50;99.90;;;;;;5105168;28;20210;-76
2021/05/10 10:47:54;;;;;;;1.00;0.90;;;20.50;99.90;;;;;;5102157;28;20207;-76
2021/05/10 10:50:22;;;;;;;1.20;1.10;;;20.50;99.90;;;;;;5102565;28;20239;-76
2021/05/10 10:52:50;;;;;;;1.00;0.90;;;20.40;99.90;;;;;;5102284;28;20200;-76
2021/05/10 10:55:22;;;;;;;1.50;1.00;;;20.50;99.90;;;;;;5105243;28;20214;-76
2021/05/10 10:57:49;;;;;;;4.60;1.10;;;20.50;99.90;;;;;;5103521;28;20199;-76
2021/05/10 11:00:18;;;;;;;1.45;1.10;;;20.50;99.90;;;;;;5105271;28;20209;-76
2021/05/10 11:02:46;;;;;;;1.15;0.93;;;20.60;99.90;;;;;;5103597;28;20257;-76
2021/05/10 11:05:16;;;;;;;3.05;0.82;;;20.70;99.90;;;;;;5104989;28;20207;-76
2021/05/10 11:08:04;;;;;;;0.95;0.95;;;20.60;99.90;;;;;;5101482;28;20231;-76
2021/05/10 11:10:48;;;;;;;1.27;1.00;;;20.70;99.90;;;;;;5102641;28;20212;-76
2021/05/10 11:13:39;;;;;;;2.28;0.85;;;20.80;99.90;;;;;;5101504;28;20200;-76
2021/05/10 11:16:08;;;;;;;1.77;0.95;;;20.90;99.90;;;;;;5092481;28;20222;-76
2021/05/10 11:18:47;;;;;;;1.13;1.02;;;21.00;99.90;;;;;;5087645;28;20208;-76
2021/05/10 11:21:44;;;;;;;1.15;1.00;;;21.10;99.90;;;;;;5089039;28;20251;-76
2021/05/10 11:24:13;;;;;;;1.00;0.82;;;21.50;99.90;;;;;;5091303;28;20226;-76
2021/05/10 11:26:43;;;;;;;2.25;1.10;;;21.50;99.90;;;;;;5089747;28;20208;-76
2021/05/10 11:29:33;;;;;;;1.98;1.00;;;21.40;99.90;;;;;;5094697;28;20235;-76
2021/05/10 11:32:24;;;;;;;1.33;1.10;;;21.50;99.90;;;;;;5091007;28;20220;-76
2021/05/10 11:34:51;;;;;;;0.90;0.90;;;21.60;99.90;;;;;;5087692;28;20209;-76
2021/05/10 11:37:25;;;;;;;1.40;1.30;;;21.70;99.90;;;;;;5098847;28;20203;-76
2021/05/10 11:39:54;;;;;;;1.42;1.00;;;21.90;99.90;;;;;;5092751;28;20212;-76
2021/05/10 11:42:26;;;;;;;0.93;0.93;;;22.00;99.90;;;;;;5093464;28;20205;-77
2021/05/10 11:44:56;;;;;;;1.20;1.00;;;22.10;99.90;;;;;;5097612;28;20233;-76
2021/05/10 11:47:23;;;;;;;1.95;1.67;;;22.10;99.90;;;;;;5089970;28;20223;-76
2021/05/10 11:49:51;;;;;;;3.20;0.90;;;22.10;99.90;;;;;;5087357;28;20205;-76
2021/05/10 11:52:19;;;;;;;2.83;1.10;;;21.90;99.90;;;;;;5087464;28;20209;-76
2021/05/10 11:54:46;;;;;;;2.70;1.15;;;22.00;99.90;;;;;;5093993;28;20215;-76
2021/05/10 11:57:15;;;;;;;2.30;0.80;;;21.90;99.90;;;;;;5095777;28;20208;-76
2021/05/10 11:59:44;;;;;;;2.25;1.52;;;21.80;99.90;;;;;;5090794;28;20212;-76
2021/05/10 12:02:18;;;;;;;1.08;0.90;;;21.70;99.90;;;;;;5091970;28;20216;-76
2021/05/10 12:04:47;;;;;;;2.47;1.13;;;21.60;99.90;;;;;;5086862;28;20233;-76
2021/05/10 12:07:13;;;;;;;1.30;1.20;;;21.40;99.90;;;;;;5088462;28;20197;-76
2021/05/10 12:09:48;;;;;;;3.45;1.05;;;21.20;99.90;;;;;;5089971;28;20212;-76
2021/05/10 12:12:32;;;;;;;4.30;1.73;;;21.00;99.90;;;;;;5094460;28;20259;-76
2021/05/10 12:15:11;;;;;;;13.27;2.00;;;20.90;99.90;;;;;;5090303;28;20204;-76
2021/05/10 12:17:39;;;;;;;11.18;2.15;;;20.70;99.90;;;;;;5089020;28;20197;-76
2021/05/10 12:20:08;;;;;;;3.83;2.63;;;20.20;99.90;;;;;;5086169;28;20213;-76
2021/05/10 12:22:38;;;;;;;5.63;1.80;;;20.00;99.90;;;;;;5094631;28;20265;-75
2021/05/10 12:25:23;;;;;;;6.45;2.03;;;19.80;99.90;;;;;;5100810;28;20196;-75
2021/05/10 12:28:03;;;;;;;11.23;2.60;;;19.50;99.90;;;;;;5102971;28;20224;-75
2021/05/10 12:30:35;;;;;;;7.78;2.13;;;19.30;99.90;;;;;;5099160;28;20203;-76
2021/05/10 12:33:05;;;;;;;10.60;2.40;;;19.20;99.90;;;;;;5089146;28;20203;-74
2021/05/10 12:35:34;;;;;;;10.60;2.63;;;19.30;99.90;;;;;;5091807;28;20265;-75
2021/05/10 12:38:01;;;;;;;4.70;2.22;;;19.30;99.90;;;;;;5086690;28;20212;-76
2021/05/10 12:40:30;;;;;;;2.90;2.22;;;19.20;99.90;;;;;;5086202;28;20205;-76
2021/05/10 12:43:09;;;;;;;3.05;2.20;;;19.30;99.90;;;;;;5092223;28;20228;-76
2021/05/10 12:45:38;;;;;;;2.60;1.73;;;19.30;99.90;;;;;;5089699;28;20215;-75
2021/05/10 12:48:19;;;;;;;3.70;1.50;;;19.30;99.90;;;;;;5087126;28;20221;-74
2021/05/10 12:50:50;;;;;;;2.00;1.63;;;19.30;99.90;;;;;;5092234;28;20192;-75
2021/05/10 12:53:29;;;;;;;2.33;1.67;;;19.40;99.90;;;;;;5090187;28;20216;-75
2021/05/10 12:56:04;;;;;;;3.88;1.70;;;19.50;99.90;;;;;;5096771;28;20204;-75
2021/05/10 12:58:34;;;;;;;2.78;1.30;;;19.40;99.90;;;;;;5090306;28;20694;-75
2021/05/10 13:01:12;;;;;;;5.57;1.50;;;19.50;99.90;;;;;;5086424;28;20691;-75
2021/05/10 13:03:39;;;;;;;1.77;1.30;;;19.60;99.90;;;;;;5089513;28;20262;-75
2021/05/10 13:06:06;;;;;;;2.45;1.60;;;19.60;99.90;;;;;;5094192;28;20205;-75
2021/05/10 13:08:47;;;;;;;1.27;1.15;;;19.60;99.90;;;;;;5090063;28;20196;-75
2021/05/10 13:11:17;;;;;;;3.97;2.53;;;19.50;99.90;;;;;;5085953;28;20201;-75
2021/05/10 13:13:51;;;;;;;1.45;1.35;;;19.50;99.90;;;;;;5086778;28;21037;-76
2021/05/10 13:16:26;;;;;;;3.28;1.67;;;19.60;99.90;;;;;;5085785;28;20579;-75
2021/05/10 13:19:00;;;;;;;3.83;1.85;;;19.70;99.90;;;;;;5085980;28;20231;-74
2021/05/10 13:22:06;;;;;;;4.00;1.23;;;19.80;99.90;;;;;;5085805;28;20196;-73
2021/05/10 13:30:58;;;;;;;2.35;1.20;;;20.10;99.90;;;;;;5087981;28;20682;-76
2021/05/10 13:33:24;;;;;;;5.57;1.05;;;20.40;99.90;;;;;;5086055;28;20228;-76
2021/05/10 13:35:55;;;;;;;2.30;0.80;;;20.40;99.90;;;;;;5087342;28;20196;-76
2021/05/10 13:38:22;;;;;;;2.17;1.10;;;20.40;99.90;;;;;;5087913;28;20629;-76
2021/05/10 13:40:49;;;;;;;4.75;1.23;;;20.30;99.90;;;;;;5101734;28;20200;-76
2021/05/10 13:43:22;;;;;;;2.03;0.90;;;20.50;99.90;;;;;;5088612;28;20223;-76
2021/05/10 13:45:48;;;;;;;1.00;0.90;;;20.60;99.90;;;;;;5087734;28;20212;-77
2021/05/10 13:48:15;;;;;;;2.55;1.85;;;20.60;99.90;;;;;;5083730;28;20205;-76
2021/05/10 13:50:41;;;;;;;1.75;0.90;;;20.60;99.90;;;;;;5087320;28;20262;-76
2021/05/10 13:53:09;;;;;;;1.75;0.98;;;20.70;99.90;;;;;;5085928;28;20200;-76
2021/05/10 13:55:35;;;;;;;1.52;1.05;;;20.70;99.90;;;;;;5089032;28;20564;-77
2021/05/10 13:58:02;;;;;;;2.17;1.00;;;20.60;99.90;;;;;;5092323;28;20208;-77
2021/05/10 14:00:29;;;;;;;2.40;1.05;;;20.60;99.90;;;;;;5093720;28;20235;-77
2021/05/10 14:02:55;;;;;;;5.55;1.15;;;20.60;99.90;;;;;;5090792;28;20316;-77
2021/05/10 14:05:21;;;;;;;3.90;1.30;;;20.70;99.90;;;;;;5089104;28;20201;-76
2021/05/10 14:07:48;;;;;;;1.30;0.98;;;20.70;99.90;;;;;;5087081;28;20200;-77
2021/05/10 14:10:16;;;;;;;3.38;1.00;;;20.80;99.90;;;;;;5093192;28;20201;-76
2021/05/10 14:12:43;;;;;;;1.88;1.20;;;20.80;99.90;;;;;;5094537;28;20200;-76
2021/05/10 14:15:12;;;;;;;7.38;1.17;;;20.80;99.90;;;;;;5097476;28;20204;-77
2021/05/10 14:17:40;;;;;;;2.67;0.73;;;20.80;99.90;;;;;;5098422;28;20201;-75
2021/05/10 14:20:10;;;;;;;3.50;1.13;;;20.70;99.90;;;;;;5083674;28;20655;-75